Time;durP1;ratioP1;P1;durP2;ratioP2;P2;SDS_P1;SDS_P2;PMS_P1;PMS_P2;Temp;Humidity;BMP_temperature;BMP_pressure;BME280_temperature;BME280_humidity;BME280_pressure;Samples;Min_cycle;Max_cycle;Signal;HPM_P1;HPM_P2
2023/08/22 04:00:40;;;;;;;1.13;0.70;;;16.40;99.90;;;;;;6093520;23;20458;-69
2023/08/22 04:03:07;;;;;;;1.20;1.20;;;16.40;99.90;;;;;;6152876;23;20903;-69
2023/08/22 04:05:33;;;;;;;3.17;2.03;;;16.50;99.90;;;;;;6155123;23;20403;-69
2023/08/22 04:08:01;;;;;;;1.00;1.00;;;16.50;99.90;;;;;;6154481;23;20493;-69
2023/08/22 04:10:28;;;;;;;0.97;0.97;;;16.50;99.90;;;;;;6153078;23;20454;-69
2023/08/22 04:12:54;;;;;;;1.90;1.50;;;16.50;99.90;;;;;;6153983;23;20426;-69
2023/08/22 04:15:21;;;;;;;1.50;1.50;;;16.50;99.90;;;;;;6153313;23;20942;-71
2023/08/22 04:17:50;;;;;;;2.43;2.33;;;16.50;99.90;;;;;;6155858;23;20400;-72
2023/08/22 04:20:20;;;;;;;1.47;1.47;;;16.50;99.90;;;;;;6154487;23;20508;-73
2023/08/22 04:22:46;;;;;;;1.20;1.20;;;16.50;99.90;;;;;;6154262;23;20419;-70
2023/08/22 04:25:14;;;;;;;1.63;1.53;;;16.60;99.90;;;;;;6152825;23;20846;-69
2023/08/22 04:27:40;;;;;;;2.90;1.07;;;16.60;99.90;;;;;;6154547;23;20419;-71
2023/08/22 04:30:08;;;;;;;1.20;1.20;;;16.60;99.90;;;;;;6153406;23;20454;-70
2023/08/22 04:32:34;;;;;;;1.13;1.13;;;16.60;99.90;;;;;;6153560;23;20427;-70
2023/08/22 04:35:02;;;;;;;1.40;1.40;;;16.60;99.90;;;;;;6154458;23;20442;-71
2023/08/22 04:37:30;;;;;;;1.53;1.53;;;16.70;99.90;;;;;;6154993;23;20746;-70
2023/08/22 04:39:56;;;;;;;1.80;1.70;;;16.70;99.90;;;;;;6153861;23;20424;-72
2023/08/22 04:42:24;;;;;;;1.23;1.13;;;16.70;99.90;;;;;;6153627;23;20732;-72
2023/08/22 04:44:51;;;;;;;1.30;1.30;;;16.70;99.90;;;;;;6154259;23;20419;-71
2023/08/22 04:47:17;;;;;;;2.03;1.93;;;16.70;99.90;;;;;;6154671;23;20425;-71
2023/08/22 04:49:47;;;;;;;1.50;1.40;;;16.70;99.90;;;;;;6155915;23;20448;-71
2023/08/22 04:52:16;;;;;;;4.87;2.07;;;16.80;99.90;;;;;;6155716;23;20505;-72
2023/08/22 04:54:48;;;;;;;9.90;1.67;;;16.80;99.90;;;;;;6155796;23;20423;-72
2023/08/22 04:57:15;;;;;;;1.43;1.43;;;16.80;99.90;;;;;;6154709;23;20419;-69
2023/08/22 04:59:42;;;;;;;1.07;1.00;;;16.80;99.90;;;;;;6155701;23;20415;-69
2023/08/22 05:02:09;;;;;;;1.70;1.33;;;16.80;99.90;;;;;;6157155;23;20764;-70
2023/08/22 05:04:36;;;;;;;1.57;1.50;;;16.80;99.90;;;;;;6155621;23;20738;-70
2023/08/22 05:07:03;;;;;;;1.00;1.00;;;16.80;99.90;;;;;;6155424;23;20975;-72
2023/08/22 05:09:31;;;;;;;1.90;1.33;;;16.80;99.90;;;;;;6155543;23;20502;-71
2023/08/22 05:11:58;;;;;;;1.93;1.83;;;16.80;99.90;;;;;;6155180;23;20452;-73
2023/08/22 05:14:25;;;;;;;1.47;1.47;;;16.80;99.90;;;;;;6152896;23;20462;-74
2023/08/22 05:16:52;;;;;;;1.37;1.37;;;16.80;99.90;;;;;;6155556;23;20452;-70
2023/08/22 05:19:19;;;;;;;2.00;1.50;;;16.90;99.90;;;;;;6156815;23;20453;-71
2023/08/22 05:21:46;;;;;;;1.53;1.53;;;16.90;99.90;;;;;;6157106;23;20502;-72
2023/08/22 05:24:13;;;;;;;2.10;1.20;;;16.90;99.90;;;;;;6156268;23;20807;-73
2023/08/22 05:26:42;;;;;;;1.23;1.23;;;16.80;99.90;;;;;;6154550;23;21004;-72
2023/08/22 05:29:09;;;;;;;1.30;1.30;;;16.90;99.90;;;;;;6157240;23;20443;-71
2023/08/22 05:31:37;;;;;;;3.23;1.60;;;16.90;99.90;;;;;;6157002;23;20466;-74
2023/08/22 05:34:04;;;;;;;2.07;1.97;;;16.90;99.90;;;;;;6154099;23;20448;-72
2023/08/22 05:36:31;;;;;;;2.10;1.83;;;16.90;99.90;;;;;;6151750;23;20438;-69
2023/08/22 05:38:58;;;;;;;2.07;1.97;;;16.90;99.90;;;;;;6152750;23;20484;-70
2023/08/22 05:41:25;;;;;;;1.70;1.60;;;17.00;99.90;;;;;;6153449;23;20420;-69
2023/08/22 05:43:53;;;;;;;4.03;1.70;;;17.00;99.90;;;;;;6152762;23;20418;-69
2023/08/22 05:46:20;;;;;;;2.23;2.13;;;17.00;99.90;;;;;;6151752;23;20471;-69
2023/08/22 05:48:46;;;;;;;1.40;1.40;;;17.00;99.90;;;;;;6153381;23;20419;-69
2023/08/22 05:51:13;;;;;;;8.03;2.70;;;17.00;99.90;;;;;;6153591;23;20761;-70
2023/08/22 05:53:40;;;;;;;8.73;2.43;;;17.00;99.90;;;;;;6153317;23;20427;-70
2023/08/22 05:56:06;;;;;;;2.47;2.37;;;17.00;99.90;;;;;;6151148;23;20440;-70
2023/08/22 05:58:34;;;;;;;2.13;2.03;;;17.00;99.90;;;;;;6153653;23;20419;-70
2023/08/22 06:01:09;;;;;;;5.43;1.90;;;17.10;99.90;;;;;;6150801;23;20727;-71
2023/08/22 06:03:36;;;;;;;1.40;1.40;;;17.10;99.90;;;;;;6153294;23;20433;-70
2023/08/22 06:06:03;;;;;;;2.03;2.03;;;17.10;99.90;;;;;;6151325;23;20968;-70
2023/08/22 06:08:30;;;;;;;1.83;1.83;;;17.10;99.90;;;;;;6153368;23;20419;-70
2023/08/22 06:10:57;;;;;;;10.93;2.50;;;17.20;99.90;;;;;;6153166;23;20469;-70
2023/08/22 06:13:24;;;;;;;2.97;2.87;;;17.20;99.90;;;;;;6152727;23;20420;-71
2023/08/22 06:15:51;;;;;;;4.33;2.50;;;17.30;99.90;;;;;;6152686;23;20457;-70
2023/08/22 06:18:19;;;;;;;1.50;1.40;;;17.30;99.90;;;;;;6152974;23;20435;-71
2023/08/22 06:20:46;;;;;;;3.40;2.30;;;17.30;99.90;;;;;;6152505;23;20789;-70
2023/08/22 06:23:12;;;;;;;1.60;1.50;;;17.40;99.90;;;;;;6153436;23;20453;-70
2023/08/22 06:25:39;;;;;;;2.17;2.07;;;17.40;99.90;;;;;;6153114;23;20772;-70
2023/08/22 06:28:06;;;;;;;2.20;2.20;;;17.50;99.90;;;;;;6149837;23;20434;-71
2023/08/22 06:30:33;;;;;;;1.57;1.57;;;17.50;99.90;;;;;;6150849;23;20445;-70
2023/08/22 06:33:00;;;;;;;2.40;2.40;;;17.50;99.90;;;;;;6152344;23;20430;-71
2023/08/22 06:35:28;;;;;;;2.27;2.07;;;17.60;99.90;;;;;;6152723;23;20452;-71
2023/08/22 06:37:55;;;;;;;2.17;2.03;;;17.70;99.90;;;;;;6151708;23;20487;-70
2023/08/22 06:40:23;;;;;;;2.00;2.00;;;17.70;99.90;;;;;;6152524;23;20425;-71
2023/08/22 06:42:49;;;;;;;2.57;2.47;;;17.70;99.90;;;;;;6152612;23;20434;-70
2023/08/22 06:45:17;;;;;;;2.40;2.30;;;17.70;99.90;;;;;;6162986;23;20435;-71
2023/08/22 06:47:43;;;;;;;2.23;2.13;;;17.70;99.90;;;;;;6152440;23;20910;-70
2023/08/22 06:50:10;;;;;;;2.63;2.43;;;17.70;99.90;;;;;;6152977;23;20445;-71
2023/08/22 06:52:38;;;;;;;1.93;1.67;;;17.70;99.90;;;;;;6153640;23;20533;-70
2023/08/22 06:55:06;;;;;;;2.33;2.23;;;17.70;99.90;;;;;;6153476;23;20452;-70
2023/08/22 06:57:33;;;;;;;1.97;1.97;;;17.80;99.90;;;;;;6152420;23;20421;-71
2023/08/22 07:00:03;;;;;;;3.00;2.83;;;17.90;99.90;;;;;;6152229;23;20794;-70
2023/08/22 07:02:30;;;;;;;2.70;2.50;;;18.00;99.90;;;;;;6152649;23;20794;-70
2023/08/22 07:04:56;;;;;;;1.70;1.70;;;18.00;99.90;;;;;;6164238;23;20882;-70
2023/08/22 07:07:23;;;;;;;3.33;3.07;;;18.10;99.90;;;;;;6153965;23;20485;-70
2023/08/22 07:09:52;;;;;;;2.67;2.47;;;18.10;99.90;;;;;;6153906;23;20446;-70
2023/08/22 07:12:18;;;;;;;1.83;1.83;;;18.30;99.90;;;;;;6154385;23;20935;-70
2023/08/22 07:14:45;;;;;;;3.37;3.07;;;18.40;99.90;;;;;;6154650;23;20428;-71
2023/08/22 07:17:12;;;;;;;4.33;2.43;;;18.50;99.90;;;;;;6122098;23;20446;-71
2023/08/22 07:19:39;;;;;;;2.37;2.27;;;18.60;99.90;;;;;;6123899;23;20466;-70
2023/08/22 07:22:05;;;;;;;3.07;2.87;;;18.70;99.90;;;;;;6124549;23;20415;-70
2023/08/22 07:24:32;;;;;;;2.50;2.40;;;18.80;99.90;;;;;;6124127;23;20416;-70
2023/08/22 07:27:00;;;;;;;2.03;2.00;;;19.00;99.90;;;;;;6124249;23;20442;-70
2023/08/22 07:29:27;;;;;;;1.83;1.83;;;19.10;99.90;;;;;;6123743;23;20423;-70
2023/08/22 07:31:58;;;;;;;1.90;1.80;;;19.20;99.90;;;;;;6123740;23;20430;-70
2023/08/22 07:34:24;;;;;;;2.87;2.67;;;19.30;99.90;;;;;;6124879;23;20431;-70
2023/08/22 07:36:51;;;;;;;1.40;1.40;;;19.50;99.90;;;;;;6125067;23;20768;-70
2023/08/22 07:39:18;;;;;;;2.13;2.13;;;19.60;99.90;;;;;;6124318;23;20530;-71
2023/08/22 07:41:45;;;;;;;1.50;1.50;;;19.60;99.90;;;;;;6124874;23;20419;-70
2023/08/22 07:44:14;;;;;;;2.37;2.30;;;19.70;99.90;;;;;;6124648;23;20929;-71
2023/08/22 07:46:41;;;;;;;1.67;1.67;;;19.70;99.90;;;;;;6124349;23;20442;-71
2023/08/22 07:49:08;;;;;;;5.40;2.17;;;19.60;99.90;;;;;;6125145;23;20445;-70
2023/08/22 07:51:36;;;;;;;1.90;1.90;;;19.70;99.90;;;;;;6124306;23;20997;-70
2023/08/22 07:54:03;;;;;;;1.63;1.63;;;19.70;99.90;;;;;;6124644;23;20733;-71
2023/08/22 07:56:30;;;;;;;2.37;2.27;;;19.70;99.90;;;;;;6124915;23;20516;-73
2023/08/22 07:58:57;;;;;;;2.20;1.63;;;19.60;99.90;;;;;;6125559;23;20440;-71
2023/08/22 08:01:25;;;;;;;1.83;1.73;;;19.70;99.90;;;;;;6124734;23;20417;-71
2023/08/22 08:03:52;;;;;;;1.33;1.33;;;19.70;99.90;;;;;;6125539;23;20735;-71
2023/08/22 08:06:19;;;;;;;1.30;1.30;;;19.80;99.90;;;;;;6124527;23;20446;-71
2023/08/22 08:08:46;;;;;;;1.97;1.87;;;19.90;99.90;;;;;;6124523;23;20426;-69
2023/08/22 08:11:12;;;;;;;1.60;1.60;;;20.00;99.90;;;;;;6124919;23;20453;-70
2023/08/22 08:13:39;;;;;;;2.50;1.17;;;20.20;99.90;;;;;;6134792;23;20805;-70
2023/08/22 08:16:07;;;;;;;1.43;1.43;;;20.30;99.90;;;;;;6139778;23;20460;-70
2023/08/22 08:18:35;;;;;;;7.20;1.37;;;20.40;99.90;;;;;;6151168;23;20429;-71
2023/08/22 08:21:02;;;;;;;3.23;1.80;;;20.50;99.90;;;;;;6151946;23;20413;-70
2023/08/22 08:23:29;;;;;;;1.67;1.67;;;20.60;99.90;;;;;;6163572;23;20456;-70
2023/08/22 08:25:56;;;;;;;1.67;1.57;;;20.70;99.90;;;;;;6154183;23;20445;-70
2023/08/22 08:28:23;;;;;;;1.70;1.70;;;20.80;99.90;;;;;;6150340;23;20476;-70
2023/08/22 08:30:50;;;;;;;1.00;1.00;;;21.00;99.90;;;;;;6153114;23;20451;-69
2023/08/22 08:33:17;;;;;;;1.30;1.30;;;21.20;99.90;;;;;;6152112;23;20432;-69
2023/08/22 08:35:45;;;;;;;1.47;1.40;;;21.30;99.90;;;;;;6152435;23;20453;-70
2023/08/22 08:38:12;;;;;;;1.03;1.03;;;21.30;99.90;;;;;;6152850;23;20421;-70
2023/08/22 08:40:40;;;;;;;1.27;1.27;;;21.40;99.90;;;;;;6153528;23;20420;-69
2023/08/22 08:43:08;;;;;;;1.10;1.10;;;21.60;99.90;;;;;;6151833;23;20426;-69
2023/08/22 08:45:35;;;;;;;1.50;1.37;;;21.60;99.90;;;;;;6151098;23;20442;-70
2023/08/22 08:48:03;;;;;;;1.47;1.37;;;21.70;99.90;;;;;;6154450;23;20428;-69
2023/08/22 08:50:31;;;;;;;2.73;1.27;;;21.80;99.90;;;;;;6152909;23;20446;-70
2023/08/22 08:52:59;;;;;;;2.63;1.30;;;22.00;99.90;;;;;;6152007;23;20422;-69
2023/08/22 08:55:26;;;;;;;1.17;1.17;;;22.20;99.90;;;;;;6153070;23;20438;-69
2023/08/22 08:57:53;;;;;;;1.13;1.13;;;22.50;99.90;;;;;;6154013;23;20916;-70
2023/08/22 09:00:20;;;;;;;1.93;1.90;;;22.60;99.90;;;;;;6153395;23;20411;-69
2023/08/22 09:02:47;;;;;;;1.27;1.07;;;22.70;99.90;;;;;;6153531;23;20420;-70
2023/08/22 09:05:14;;;;;;;0.90;0.90;;;22.90;99.90;;;;;;6152666;23;20948;-70
2023/08/22 09:07:43;;;;;;;0.50;0.50;;;23.00;99.90;;;;;;6153385;23;20459;-70
2023/08/22 09:10:11;;;;;;;0.87;0.87;;;23.20;99.90;;;;;;6154011;23;20449;-71
2023/08/22 09:12:39;;;;;;;0.77;0.77;;;23.40;99.90;;;;;;6152918;23;20421;-72
2023/08/22 09:15:09;;;;;;;0.97;0.97;;;23.50;99.90;;;;;;6153581;23;20534;-72
2023/08/22 09:17:35;;;;;;;1.70;0.90;;;23.60;99.90;;;;;;6153301;23;20505;-72
2023/08/22 09:20:10;;;;;;;0.80;0.80;;;23.70;99.90;;;;;;6153437;23;20420;-72
2023/08/22 09:22:37;;;;;;;0.87;0.87;;;23.90;99.90;;;;;;6153369;23;20404;-72
2023/08/22 09:25:07;;;;;;;1.20;0.77;;;23.90;99.90;;;;;;6153209;23;20419;-72
2023/08/22 09:27:35;;;;;;;1.90;0.90;;;24.00;99.90;;;;;;6153767;23;20946;-72
2023/08/22 09:30:04;;;;;;;1.33;0.80;;;24.00;99.90;;;;;;6151803;23;20928;-72
2023/08/22 09:32:31;;;;;;;0.80;0.80;;;24.00;99.90;;;;;;6153214;23;20423;-72
2023/08/22 09:34:59;;;;;;;0.67;0.67;;;24.20;99.90;;;;;;6153097;23;20430;-73
2023/08/22 09:37:33;;;;;;;0.90;0.90;;;24.30;99.90;;;;;;6154234;23;20833;-72
2023/08/22 09:40:00;;;;;;;1.30;1.03;;;24.40;99.90;;;;;;6153685;23;20461;-71
2023/08/22 09:42:29;;;;;;;0.87;0.87;;;24.50;99.90;;;;;;6153297;23;20421;-72
2023/08/22 09:44:57;;;;;;;0.97;0.97;;;24.60;99.90;;;;;;6153681;23;20585;-72
2023/08/22 09:47:27;;;;;;;0.90;0.90;;;24.60;99.90;;;;;;6153628;23;21073;-72
2023/08/22 09:49:56;;;;;;;1.00;1.00;;;24.60;99.90;;;;;;6153409;23;20421;-72
2023/08/22 09:52:24;;;;;;;0.70;0.63;;;24.60;99.90;;;;;;6151564;23;20450;-71
2023/08/22 09:54:51;;;;;;;1.00;1.00;;;24.70;99.90;;;;;;6153630;23;20422;-71
2023/08/22 09:57:19;;;;;;;0.83;0.83;;;24.60;99.90;;;;;;6152372;23;20420;-71
2023/08/22 09:59:48;;;;;;;0.80;0.80;;;24.50;99.90;;;;;;6151015;23;20423;-71
2023/08/22 10:02:18;;;;;;;0.83;0.73;;;24.60;99.90;;;;;;6152677;23;20418;-71
2023/08/22 10:04:45;;;;;;;0.87;0.87;;;24.70;99.90;;;;;;6153896;23;20413;-72
2023/08/22 10:07:12;;;;;;;1.00;1.00;;;24.70;99.90;;;;;;6153294;23;20429;-71
2023/08/22 10:09:39;;;;;;;0.90;0.90;;;24.70;99.90;;;;;;6152026;23;20422;-71
2023/08/22 10:12:08;;;;;;;1.93;1.00;;;24.90;99.90;;;;;;6152155;23;20450;-71
2023/08/22 10:14:38;;;;;;;0.77;0.77;;;24.90;99.90;;;;;;6151229;23;21130;-71
2023/08/22 10:17:05;;;;;;;0.97;0.87;;;25.00;99.90;;;;;;6151736;23;20458;-72
2023/08/22 10:19:33;;;;;;;0.90;0.90;;;25.00;99.90;;;;;;6150765;23;20438;-71
2023/08/22 10:22:07;;;;;;;1.87;1.77;;;25.00;99.90;;;;;;6149562;23;20425;-71
2023/08/22 10:24:35;;;;;;;0.90;0.90;;;24.90;99.90;;;;;;6151410;23;20429;-71
2023/08/22 10:27:03;;;;;;;1.00;1.00;;;25.00;99.90;;;;;;6151906;23;20472;-71
2023/08/22 10:29:37;;;;;;;0.70;0.70;;;25.10;99.90;;;;;;6150638;23;20422;-71
2023/08/22 10:32:25;;;;;;;1.00;1.00;;;25.10;99.90;;;;;;6151822;23;20460;-72
2023/08/22 10:35:27;;;;;;;1.00;1.00;;;25.20;99.90;;;;;;6152112;23;20427;-71
2023/08/22 10:37:56;;;;;;;2.30;0.60;;;25.30;99.90;;;;;;6153248;23;20432;-71
2023/08/22 10:40:27;;;;;;;0.70;0.70;;;25.20;99.90;;;;;;6153305;23;20422;-71
2023/08/22 10:43:13;;;;;;;0.67;0.67;;;25.10;99.90;;;;;;6154647;23;20761;-71
2023/08/22 10:45:51;;;;;;;0.83;0.83;;;25.20;99.90;;;;;;6152750;23;20441;-72
2023/08/22 10:48:20;;;;;;;0.70;0.70;;;25.20;99.90;;;;;;6155322;23;20405;-70
2023/08/22 10:50:49;;;;;;;1.23;1.23;;;25.30;99.90;;;;;;6155236;23;20449;-71
2023/08/22 10:53:27;;;;;;;0.87;0.87;;;25.30;99.90;;;;;;6154305;23;20935;-71
2023/08/22 10:55:55;;;;;;;0.97;0.97;;;25.30;99.90;;;;;;6155076;23;20438;-71
2023/08/22 10:58:43;;;;;;;0.90;0.90;;;25.30;99.90;;;;;;6154922;23;20421;-71
2023/08/22 11:01:15;;;;;;;0.90;0.90;;;25.30;99.90;;;;;;6142485;23;20573;-71
2023/08/22 11:03:42;;;;;;;1.03;1.03;;;25.30;99.90;;;;;;6164734;23;20420;-70
2023/08/22 11:06:15;;;;;;;0.73;0.73;;;25.30;99.90;;;;;;6154712;23;20436;-70
2023/08/22 11:08:43;;;;;;;1.30;1.30;;;25.30;99.90;;;;;;6155051;23;20402;-72
2023/08/22 11:11:13;;;;;;;3.03;1.00;;;25.40;99.90;;;;;;6154564;23;20543;-71
2023/08/22 11:13:40;;;;;;;0.70;0.70;;;25.40;99.90;;;;;;6154807;23;20426;-71
2023/08/22 11:16:11;;;;;;;1.07;1.07;;;25.40;99.90;;;;;;6153348;23;20457;-71
2023/08/22 11:18:39;;;;;;;1.33;1.30;;;25.30;99.90;;;;;;6150868;23;20487;-71
2023/08/22 11:21:06;;;;;;;1.00;0.93;;;25.30;99.90;;;;;;6152019;23;20485;-71
2023/08/22 11:23:35;;;;;;;1.23;1.20;;;25.30;99.90;;;;;;6154407;23;20425;-70
2023/08/22 11:26:03;;;;;;;0.80;0.80;;;25.50;99.90;;;;;;6154375;23;20447;-71
2023/08/22 11:28:31;;;;;;;1.27;1.03;;;25.60;99.90;;;;;;6155136;23;20407;-71
2023/08/22 11:30:58;;;;;;;0.90;0.90;;;25.60;99.90;;;;;;6154315;23;20449;-71
2023/08/22 11:33:24;;;;;;;1.40;1.40;;;25.60;99.90;;;;;;6154152;23;20421;-69
2023/08/22 11:35:52;;;;;;;1.10;1.10;;;25.60;99.90;;;;;;6153824;23;21167;-69
2023/08/22 11:38:19;;;;;;;0.83;0.83;;;25.60;99.90;;;;;;6153068;23;20427;-69
2023/08/22 11:40:47;;;;;;;1.23;1.23;;;25.60;99.90;;;;;;6154588;23;20422;-69
2023/08/22 11:43:15;;;;;;;3.27;1.50;;;25.50;99.90;;;;;;6155225;23;20424;-70
2023/08/22 11:45:46;;;;;;;2.37;1.43;;;25.50;99.90;;;;;;6154568;23;21005;-71
2023/08/22 11:48:17;;;;;;;1.37;1.37;;;25.60;99.90;;;;;;6154188;23;20461;-70
2023/08/22 11:50:44;;;;;;;1.10;1.10;;;25.60;99.90;;;;;;6153676;23;20406;-70
2023/08/22 11:53:12;;;;;;;1.30;1.30;;;25.60;99.90;;;;;;6153281;23;20750;-70
2023/08/22 11:55:41;;;;;;;1.63;1.50;;;25.70;99.90;;;;;;6154059;23;20945;-70
2023/08/22 11:58:15;;;;;;;0.90;0.90;;;25.70;99.90;;;;;;6154973;23;20448;-71
2023/08/22 12:00:42;;;;;;;1.37;1.37;;;25.80;99.90;;;;;;6150713;23;20903;-71
2023/08/22 12:03:09;;;;;;;1.17;1.17;;;25.70;99.90;;;;;;6155439;23;20755;-70
2023/08/22 12:05:38;;;;;;;1.57;1.57;;;25.60;99.90;;;;;;6153594;23;20547;-71
2023/08/22 12:08:17;;;;;;;1.10;1.10;;;25.70;99.90;;;;;;6148759;23;20929;-71
2023/08/22 12:10:45;;;;;;;2.03;1.00;;;25.80;99.90;;;;;;6152345;23;20410;-71
2023/08/22 12:13:14;;;;;;;1.50;1.30;;;26.00;99.90;;;;;;6154013;23;20477;-71
2023/08/22 12:15:41;;;;;;;1.27;1.23;;;26.10;99.90;;;;;;6149757;23;20446;-70
2023/08/22 12:18:08;;;;;;;1.23;1.23;;;26.10;99.90;;;;;;6150079;23;20429;-71
2023/08/22 12:20:37;;;;;;;1.50;1.50;;;26.10;99.90;;;;;;6158638;23;20429;-71
2023/08/22 12:23:04;;;;;;;1.23;1.23;;;25.90;99.90;;;;;;6153658;23;20414;-70
2023/08/22 12:25:31;;;;;;;1.70;1.23;;;25.80;99.90;;;;;;6154303;23;20449;-70
2023/08/22 12:27:58;;;;;;;1.40;1.40;;;25.70;99.90;;;;;;6153338;23;20452;-72
2023/08/22 12:30:26;;;;;;;1.97;1.83;;;25.70;99.90;;;;;;6152070;23;20830;-70
2023/08/22 12:32:53;;;;;;;2.10;2.00;;;25.70;99.90;;;;;;6152978;23;20458;-70
2023/08/22 12:35:19;;;;;;;2.43;2.00;;;25.70;99.90;;;;;;6153724;23;20524;-70
2023/08/22 12:37:46;;;;;;;1.50;1.20;;;25.50;99.90;;;;;;6154615;23;20774;-70
2023/08/22 12:40:15;;;;;;;1.40;1.40;;;25.60;99.90;;;;;;6156532;23;20419;-70
2023/08/22 12:42:42;;;;;;;1.23;1.23;;;25.80;99.90;;;;;;6155838;23;20490;-71
2023/08/22 12:45:10;;;;;;;0.97;0.97;;;25.80;99.90;;;;;;6154970;23;20446;-70
2023/08/22 12:47:38;;;;;;;1.33;1.20;;;25.80;99.90;;;;;;6155126;23;20419;-71
2023/08/22 12:50:06;;;;;;;1.57;1.47;;;25.90;99.90;;;;;;6154224;23;20429;-70
2023/08/22 12:52:33;;;;;;;1.30;1.30;;;26.10;99.90;;;;;;6152816;23;20990;-71
2023/08/22 12:54:59;;;;;;;4.10;1.20;;;26.30;99.90;;;;;;6154089;23;20419;-71
2023/08/22 12:57:26;;;;;;;2.90;1.27;;;26.50;99.90;;;;;;6153332;23;20425;-71
2023/08/22 12:59:53;;;;;;;0.97;0.97;;;26.50;99.90;;;;;;6153112;23;20908;-71
2023/08/22 13:02:22;;;;;;;1.70;1.23;;;26.40;99.90;;;;;;6153393;23;20435;-72
2023/08/22 13:04:51;;;;;;;1.40;1.40;;;26.40;99.90;;;;;;6154241;23;20455;-71
2023/08/22 13:07:17;;;;;;;0.90;0.90;;;26.30;99.90;;;;;;6153898;23;20423;-71
2023/08/22 13:09:44;;;;;;;2.63;1.10;;;26.20;99.90;;;;;;6150601;23;20422;-72
2023/08/22 13:12:11;;;;;;;1.00;1.00;;;26.00;99.90;;;;;;6152216;23;21139;-71
2023/08/22 13:14:37;;;;;;;0.80;0.80;;;25.80;99.90;;;;;;6153972;23;20504;-71
2023/08/22 13:17:04;;;;;;;1.37;1.07;;;25.80;99.90;;;;;;6153406;23;20457;-72
2023/08/22 13:19:31;;;;;;;1.23;1.23;;;25.80;99.90;;;;;;6152870;23;20425;-71
2023/08/22 13:21:59;;;;;;;1.13;1.13;;;25.80;99.90;;;;;;6153801;23;20426;-72
2023/08/22 13:24:26;;;;;;;1.10;1.03;;;25.70;99.90;;;;;;6154430;23;20427;-71
2023/08/22 13:26:52;;;;;;;0.70;0.70;;;25.70;99.90;;;;;;6153244;23;20747;-72
2023/08/22 13:29:19;;;;;;;1.00;1.00;;;25.80;99.90;;;;;;6151884;23;20863;-72
2023/08/22 13:31:47;;;;;;;1.10;1.10;;;25.80;99.90;;;;;;6150083;23;20473;-72
2023/08/22 13:34:14;;;;;;;3.07;1.10;;;25.80;99.90;;;;;;6153192;23;20422;-72
2023/08/22 13:36:40;;;;;;;0.93;0.93;;;25.90;99.90;;;;;;6152354;23;20453;-72
2023/08/22 13:39:08;;;;;;;0.90;0.90;;;25.80;99.90;;;;;;6152833;23;20421;-71
2023/08/22 13:41:36;;;;;;;0.70;0.70;;;25.70;99.90;;;;;;6152998;23;20425;-71
2023/08/22 13:44:03;;;;;;;1.17;1.03;;;25.60;99.90;;;;;;6152741;23;20444;-71
2023/08/22 13:46:29;;;;;;;1.20;1.20;;;25.60;99.90;;;;;;6153934;23;20444;-71
2023/08/22 13:48:56;;;;;;;1.33;1.33;;;25.60;99.90;;;;;;6152618;23;20755;-70
2023/08/22 13:51:23;;;;;;;3.17;1.13;;;25.60;99.90;;;;;;6153284;23;20449;-70
2023/08/22 13:53:50;;;;;;;2.10;1.10;;;25.60;99.90;;;;;;6153710;23;20418;-70
2023/08/22 13:56:19;;;;;;;0.80;0.80;;;25.60;99.90;;;;;;6152589;23;20446;-71
2023/08/22 13:58:46;;;;;;;1.13;1.13;;;25.70;99.90;;;;;;6151908;23;20423;-70
2023/08/22 14:01:12;;;;;;;0.97;0.97;;;25.70;99.90;;;;;;6151103;23;20428;-70
2023/08/22 14:03:40;;;;;;;1.10;1.10;;;25.70;99.90;;;;;;6153452;23;20429;-71
2023/08/22 14:06:07;;;;;;;0.93;0.93;;;25.70;99.90;;;;;;6162653;23;20527;-70
2023/08/22 14:08:34;;;;;;;1.67;1.57;;;25.70;99.90;;;;;;6153594;23;20420;-71
2023/08/22 14:11:00;;;;;;;2.97;1.50;;;25.80;99.90;;;;;;6151722;23;20424;-71
2023/08/22 14:13:29;;;;;;;1.80;1.00;;;25.70;99.90;;;;;;6152263;23;20448;-71
2023/08/22 14:15:55;;;;;;;1.93;1.93;;;25.80;99.90;;;;;;6155284;23;20457;-71
2023/08/22 14:18:22;;;;;;;1.07;1.07;;;25.80;99.90;;;;;;6154366;23;20428;-71
2023/08/22 14:20:49;;;;;;;1.10;1.10;;;25.80;99.90;;;;;;6154700;23;20913;-71
2023/08/22 14:23:15;;;;;;;1.13;1.13;;;25.80;99.90;;;;;;6154990;23;20416;-71
2023/08/22 14:25:45;;;;;;;1.67;1.53;;;25.80;99.90;;;;;;6154235;23;20445;-70
2023/08/22 14:28:11;;;;;;;1.10;1.10;;;25.90;99.90;;;;;;6155229;23;20425;-70
2023/08/22 14:30:40;;;;;;;1.20;1.20;;;25.90;99.90;;;;;;6154688;23;20934;-71
2023/08/22 14:33:07;;;;;;;2.73;1.20;;;25.90;99.90;;;;;;6155338;23;20453;-71
2023/08/22 14:35:40;;;;;;;0.90;0.90;;;25.90;99.90;;;;;;6154301;23;20565;-70
2023/08/22 14:38:06;;;;;;;1.00;1.00;;;26.00;99.90;;;;;;6154429;23;20403;-71
2023/08/22 14:40:33;;;;;;;1.33;1.23;;;26.00;99.90;;;;;;6155393;23;20420;-71
2023/08/22 14:43:00;;;;;;;1.20;1.20;;;26.10;99.90;;;;;;6154754;23;20420;-71
2023/08/22 14:45:26;;;;;;;4.47;1.30;;;26.10;99.90;;;;;;6154872;23;20452;-71
2023/08/22 14:47:54;;;;;;;2.07;1.13;;;26.20;99.90;;;;;;6155415;23;20905;-71
2023/08/22 14:50:21;;;;;;;0.97;0.97;;;26.20;99.90;;;;;;6154040;23;20488;-71
2023/08/22 14:52:48;;;;;;;1.20;1.20;;;26.30;99.90;;;;;;6155696;23;20445;-71
2023/08/22 14:55:15;;;;;;;1.80;1.20;;;26.40;99.90;;;;;;6155400;23;20438;-71
2023/08/22 14:57:41;;;;;;;0.70;0.70;;;26.50;99.90;;;;;;6155357;23;20421;-70
2023/08/22 15:00:10;;;;;;;1.23;1.00;;;26.50;99.90;;;;;;6155038;23;20419;-71
2023/08/22 15:02:36;;;;;;;1.27;1.17;;;26.40;99.90;;;;;;6155514;23;20417;-71
2023/08/22 15:05:05;;;;;;;1.47;1.27;;;26.50;99.90;;;;;;6154119;23;20418;-71
2023/08/22 15:07:32;;;;;;;0.90;0.90;;;26.50;99.90;;;;;;6154585;23;20438;-71
2023/08/22 15:09:58;;;;;;;1.27;1.10;;;26.60;99.90;;;;;;6155129;23;20444;-71
2023/08/22 15:12:25;;;;;;;1.23;1.13;;;26.60;99.90;;;;;;6155078;23;20449;-71
2023/08/22 15:14:52;;;;;;;0.80;0.80;;;26.70;99.90;;;;;;6154502;23;20907;-71
2023/08/22 15:17:18;;;;;;;1.20;1.20;;;26.80;99.90;;;;;;6154844;23;20403;-71
2023/08/22 15:19:45;;;;;;;1.50;1.43;;;26.80;99.90;;;;;;6154845;23;20422;-70
2023/08/22 15:22:13;;;;;;;1.23;1.23;;;26.80;99.90;;;;;;6155236;23;20414;-70
2023/08/22 15:24:40;;;;;;;1.00;1.00;;;26.70;99.90;;;;;;6154835;23;20423;-71
2023/08/22 15:27:06;;;;;;;1.23;1.23;;;26.70;99.90;;;;;;6155173;23;20439;-71
2023/08/22 15:29:33;;;;;;;0.80;0.80;;;26.70;99.90;;;;;;6154545;23;20445;-71
2023/08/22 15:32:00;;;;;;;1.10;1.10;;;26.70;99.90;;;;;;6155310;23;20419;-71
2023/08/22 15:34:27;;;;;;;1.00;0.90;;;26.70;99.90;;;;;;6154536;23;20727;-71
2023/08/22 15:36:53;;;;;;;1.20;1.20;;;26.60;99.90;;;;;;6155293;23;20453;-70
2023/08/22 15:39:21;;;;;;;1.30;1.00;;;26.70;99.90;;;;;;6152120;23;20419;-71
2023/08/22 15:41:48;;;;;;;0.90;0.90;;;26.70;99.90;;;;;;6154124;23;20926;-71
2023/08/22 15:44:15;;;;;;;1.00;1.00;;;26.70;99.90;;;;;;6154264;23;20413;-71
2023/08/22 15:46:41;;;;;;;0.80;0.80;;;26.70;99.90;;;;;;6155317;23;20449;-70
2023/08/22 15:49:08;;;;;;;1.37;1.37;;;26.70;99.90;;;;;;6154744;23;20422;-71
2023/08/22 15:51:35;;;;;;;0.63;0.63;;;26.70;99.90;;;;;;6153809;23;20449;-70
2023/08/22 15:54:01;;;;;;;1.00;1.00;;;26.60;99.90;;;;;;6153891;23;20458;-70
2023/08/22 15:56:30;;;;;;;0.87;0.87;;;26.60;99.90;;;;;;6152127;23;20446;-71
2023/08/22 15:58:56;;;;;;;1.00;1.00;;;26.60;99.90;;;;;;6154291;23;20422;-70
2023/08/22 16:01:23;;;;;;;0.73;0.73;;;26.60;99.90;;;;;;6153329;23;20426;-70
2023/08/22 16:03:50;;;;;;;3.20;1.10;;;26.50;99.90;;;;;;6154908;23;20418;-72
2023/08/22 16:06:17;;;;;;;1.20;1.10;;;26.30;99.90;;;;;;6154367;23;20437;-70
2023/08/22 16:08:44;;;;;;;2.50;0.73;;;26.30;99.90;;;;;;6153574;23;20428;-72
2023/08/22 16:11:11;;;;;;;1.03;1.03;;;26.30;99.90;;;;;;6154594;23;20421;-71
2023/08/22 16:13:39;;;;;;;0.50;0.50;;;26.30;99.90;;;;;;6153899;23;20453;-72
2023/08/22 16:16:07;;;;;;;1.93;1.83;;;26.30;99.90;;;;;;6154613;23;20759;-71
2023/08/22 16:18:34;;;;;;;0.63;0.63;;;26.20;99.90;;;;;;6148502;23;20536;-67
2023/08/22 16:21:00;;;;;;;0.63;0.63;;;26.20;99.90;;;;;;6153131;23;20423;-67
2023/08/22 16:23:28;;;;;;;2.20;1.20;;;26.20;99.90;;;;;;6150800;23;20414;-68
2023/08/22 16:25:54;;;;;;;0.90;0.90;;;26.10;99.90;;;;;;6151941;23;20471;-67
2023/08/22 16:28:22;;;;;;;0.60;0.60;;;26.00;99.90;;;;;;6153285;23;20444;-67
2023/08/22 16:30:52;;;;;;;0.63;0.63;;;26.00;99.90;;;;;;6148391;23;20544;-67
2023/08/22 16:33:20;;;;;;;0.67;0.67;;;26.00;99.90;;;;;;6149481;23;20455;-67
2023/08/22 16:35:51;;;;;;;0.50;0.50;;;26.00;99.90;;;;;;6152054;23;20421;-67
2023/08/22 16:38:18;;;;;;;0.60;0.60;;;26.00;99.90;;;;;;6151829;23;20538;-67
2023/08/22 16:40:45;;;;;;;0.70;0.70;;;25.90;99.90;;;;;;6152281;23;20421;-67
2023/08/22 16:43:11;;;;;;;0.80;0.80;;;25.80;99.90;;;;;;6152766;23;20423;-67
2023/08/22 16:45:39;;;;;;;0.60;0.60;;;25.80;99.90;;;;;;6151730;23;20421;-68
2023/08/22 16:48:07;;;;;;;0.87;0.87;;;25.70;99.90;;;;;;6151237;23;20443;-67
2023/08/22 16:50:34;;;;;;;0.87;0.87;;;25.60;99.90;;;;;;6152898;23;20422;-67